Time;durP1;ratioP1;P1;durP2;ratioP2;P2;SDS_P1;SDS_P2;PMS_P1;PMS_P2;Temp;Humidity;BMP_temperature;BMP_pressure;BME280_temperature;BME280_humidity;BME280_pressure;Samples;Min_cycle;Max_cycle;Signal;HPM_P1;HPM_P2
2023/01/07 00:01:22;;;;;;;33.08;15.82;;;10.50;99.90;;;;;;5008952;28;20443;-67
2023/01/07 00:03:49;;;;;;;37.90;17.77;;;10.50;99.90;;;;;;5007184;28;20096;-67
2023/01/07 00:06:23;;;;;;;33.25;16.50;;;10.50;99.90;;;;;;5007219;28;20457;-67
2023/01/07 00:08:51;;;;;;;34.88;17.30;;;10.50;99.90;;;;;;4990994;28;20045;-67
2023/01/07 00:11:35;;;;;;;34.00;17.25;;;10.60;99.90;;;;;;5009666;28;20073;-67
2023/01/07 00:14:02;;;;;;;36.63;18.10;;;10.60;99.90;;;;;;4995495;28;20041;-67
2023/01/07 00:16:30;;;;;;;37.00;17.63;;;10.60;99.90;;;;;;5012963;28;20045;-67
2023/01/07 00:18:57;;;;;;;36.83;18.10;;;10.60;99.90;;;;;;4997506;28;20045;-66
2023/01/07 00:21:24;;;;;;;37.78;18.95;;;10.70;99.90;;;;;;4991450;28;20426;-67
2023/01/07 00:23:54;;;;;;;39.10;18.50;;;10.70;99.90;;;;;;5007854;28;20180;-67
2023/01/07 00:26:21;;;;;;;38.05;19.85;;;10.70;99.90;;;;;;5005949;28;20038;-67
2023/01/07 00:28:48;;;;;;;34.25;16.90;;;10.70;99.90;;;;;;5005701;28;20105;-67
2023/01/07 00:31:19;;;;;;;37.45;20.88;;;10.70;99.90;;;;;;5001094;28;20058;-66
2023/01/07 00:34:05;;;;;;;;;;;10.70;99.90;;;;;;4992747;28;20046;-65
2023/01/07 00:36:37;;;;;;;39.45;19.10;;;10.80;99.90;;;;;;5002291;28;19917;-66
2023/01/07 00:39:09;;;;;;;38.92;19.73;;;10.80;99.90;;;;;;5012517;28;20038;-66
2023/01/07 00:41:35;;;;;;;44.90;20.27;;;10.80;99.90;;;;;;5012220;28;20045;-66
2023/01/07 00:44:02;;;;;;;43.38;20.67;;;10.80;99.90;;;;;;5001831;28;20042;-66
2023/01/07 00:46:28;;;;;;;40.63;19.88;;;10.80;99.90;;;;;;5010520;28;20050;-67
2023/01/07 00:48:54;;;;;;;44.85;21.90;;;10.80;99.90;;;;;;5012171;28;20056;-66
2023/01/07 00:51:19;;;;;;;43.75;21.48;;;10.80;99.90;;;;;;4989352;28;20034;-66
2023/01/07 00:53:46;;;;;;;40.55;19.30;;;10.80;99.90;;;;;;5006211;28;20038;-66
2023/01/07 00:56:13;;;;;;;44.42;20.95;;;10.80;99.90;;;;;;5011692;28;20042;-66
2023/01/07 00:58:39;;;;;;;45.90;23.88;;;10.90;99.90;;;;;;5008978;28;20077;-66
2023/01/07 01:01:05;;;;;;;42.22;20.65;;;10.90;99.90;;;;;;4990385;28;20096;-67
2023/01/07 01:03:32;;;;;;;43.67;21.27;;;10.90;99.90;;;;;;5011690;28;20034;-66
2023/01/07 01:06:11;;;;;;;39.78;20.77;;;10.90;99.90;;;;;;5012202;28;20061;-66
2023/01/07 01:08:39;;;;;;;40.40;21.17;;;10.90;99.90;;;;;;4993753;28;20034;-66
2023/01/07 01:11:06;;;;;;;38.65;20.38;;;10.90;99.90;;;;;;4993846;28;20134;-66
2023/01/07 01:13:32;;;;;;;37.42;19.20;;;10.90;99.90;;;;;;4991834;28;20034;-66
2023/01/07 01:15:58;;;;;;;44.13;23.15;;;10.90;99.90;;;;;;4990461;28;20046;-66
2023/01/07 01:18:23;;;;;;;38.80;20.17;;;10.90;99.90;;;;;;5011154;28;20034;-67
2023/01/07 01:20:49;;;;;;;37.70;20.30;;;11.00;99.90;;;;;;5000148;28;20038;-66
2023/01/07 01:23:15;;;;;;;40.50;21.50;;;11.00;99.90;;;;;;4995258;28;20034;-66
2023/01/07 01:25:40;;;;;;;43.00;21.98;;;10.90;99.90;;;;;;4999889;28;20033;-66
2023/01/07 01:28:06;;;;;;;42.00;20.85;;;11.00;99.90;;;;;;5000637;28;20038;-66
2023/01/07 01:30:32;;;;;;;41.03;21.27;;;10.90;99.90;;;;;;4991987;28;20042;-66
2023/01/07 01:32:57;;;;;;;42.97;22.00;;;10.90;99.90;;;;;;4979183;28;20133;-67
2023/01/07 01:35:23;;;;;;;36.42;18.90;;;10.90;99.90;;;;;;5009646;28;20120;-66
2023/01/07 01:37:48;;;;;;;36.58;18.80;;;10.90;99.90;;;;;;5010880;28;20370;-66
2023/01/07 01:40:14;;;;;;;40.40;20.42;;;10.90;99.90;;;;;;5009178;28;20550;-65
2023/01/07 01:42:40;;;;;;;39.05;19.58;;;10.90;99.90;;;;;;4995010;28;20508;-66
2023/01/07 01:45:06;;;;;;;41.90;20.52;;;10.90;99.90;;;;;;5008589;28;20165;-66
2023/01/07 01:47:43;;;;;;;44.38;21.90;;;10.80;99.90;;;;;;5011642;28;20038;-67
2023/01/07 01:50:20;;;;;;;47.80;22.20;;;10.90;99.90;;;;;;5007695;28;20045;-66
2023/01/07 01:52:54;;;;;;;42.28;20.50;;;10.90;99.90;;;;;;4987648;28;20121;-66
2023/01/07 01:55:26;;;;;;;37.42;18.88;;;10.90;99.90;;;;;;4991761;28;20052;-66
2023/01/07 01:57:54;;;;;;;41.35;20.30;;;10.90;99.90;;;;;;4989561;28;20034;-66
2023/01/07 02:00:20;;;;;;;43.35;20.88;;;10.90;99.90;;;;;;5009845;28;20088;-66
2023/01/07 02:02:49;;;;;;;43.58;20.35;;;10.90;99.90;;;;;;5010256;28;20041;-66
2023/01/07 02:05:15;;;;;;;45.70;22.23;;;10.80;99.90;;;;;;5011259;28;20038;-66
2023/01/07 02:07:41;;;;;;;38.63;20.63;;;10.90;99.90;;;;;;4999785;28;20032;-66
2023/01/07 02:10:14;;;;;;;39.28;19.38;;;10.90;99.90;;;;;;5009169;28;20034;-66
2023/01/07 02:13:07;;;;;;;40.40;19.98;;;10.80;99.90;;;;;;5010361;28;20037;-66
2023/01/07 02:15:48;;;;;;;40.97;21.08;;;10.90;99.90;;;;;;5001207;28;20034;-67
2023/01/07 02:18:44;;;;;;;41.47;20.58;;;10.90;99.90;;;;;;4990600;28;20053;-65
2023/01/07 02:21:16;;;;;;;35.47;17.45;;;10.90;99.90;;;;;;4993072;28;20516;-65
2023/01/07 02:24:00;;;;;;;38.42;18.67;;;10.90;99.90;;;;;;5007345;28;20060;-66
2023/01/07 02:26:47;;;;;;;38.55;20.05;;;10.80;99.90;;;;;;5002597;28;20041;-66
2023/01/07 02:29:24;;;;;;;37.80;19.92;;;10.90;99.90;;;;;;5011088;28;20045;-66
2023/01/07 02:32:24;;;;;;;40.10;19.38;;;10.90;99.90;;;;;;5006837;28;20053;-66
2023/01/07 02:34:52;;;;;;;40.53;20.55;;;10.90;99.90;;;;;;5013393;28;20034;-66
2023/01/07 02:37:33;;;;;;;37.92;18.95;;;10.90;99.90;;;;;;5014896;28;20038;-65
2023/01/07 02:40:17;;;;;;;33.20;18.77;;;10.90;99.90;;;;;;5006798;28;20039;-66
2023/01/07 02:43:03;;;;;;;39.78;20.95;;;10.90;99.90;;;;;;5003725;28;20081;-66
2023/01/07 02:45:34;;;;;;;39.58;20.42;;;10.90;99.90;;;;;;4995260;28;20042;-67
2023/01/07 02:48:07;;;;;;;32.30;17.88;;;10.90;99.90;;;;;;4993168;28;20054;-66
2023/01/07 02:50:32;;;;;;;37.58;19.83;;;10.90;99.90;;;;;;5001614;28;20115;-66
2023/01/07 02:52:58;;;;;;;32.97;18.15;;;10.80;99.90;;;;;;5014028;28;20066;-66
2023/01/07 02:55:43;;;;;;;32.55;17.00;;;10.90;99.90;;;;;;5014391;28;20127;-66
2023/01/07 02:58:30;;;;;;;33.10;18.35;;;10.90;99.90;;;;;;5001289;28;20038;-66
2023/01/07 03:01:11;;;;;;;37.97;20.15;;;10.90;99.90;;;;;;4998500;28;20042;-66
2023/01/07 03:04:12;;;;;;;32.85;17.60;;;10.90;99.90;;;;;;4994741;28;20046;-65
2023/01/07 03:06:58;;;;;;;30.88;17.73;;;10.90;99.90;;;;;;5012779;28;20080;-66
2023/01/07 03:09:36;;;;;;;31.88;19.30;;;10.90;99.90;;;;;;5006223;28;20069;-65
2023/01/07 03:12:12;;;;;;;29.38;18.02;;;10.90;99.90;;;;;;5013723;28;20048;-66
2023/01/07 03:15:08;;;;;;;34.88;20.38;;;10.90;99.90;;;;;;5003585;28;20026;-66
2023/01/07 03:17:41;;;;;;;33.72;21.58;;;10.80;99.90;;;;;;5001595;28;20474;-66
2023/01/07 03:20:08;;;;;;;28.95;18.27;;;10.90;99.90;;;;;;5013893;28;20052;-66
2023/01/07 03:22:37;;;;;;;32.45;18.52;;;10.90;99.90;;;;;;5000853;28;20042;-66
2023/01/07 03:25:05;;;;;;;36.35;21.17;;;10.80;99.90;;;;;;5010756;28;20439;-66
2023/01/07 03:27:33;;;;;;;31.10;19.15;;;10.80;99.90;;;;;;5013869;28;20041;-67
2023/01/07 03:30:04;;;;;;;30.15;20.08;;;10.90;99.90;;;;;;5010224;28;20049;-66
2023/01/07 03:33:01;;;;;;;29.93;19.23;;;10.80;99.90;;;;;;5005323;28;20397;-65
2023/01/07 03:35:33;;;;;;;26.23;16.77;;;10.80;99.90;;;;;;4977947;28;20396;-66
2023/01/07 03:38:03;;;;;;;31.90;19.33;;;10.80;99.90;;;;;;4977847;28;20130;-66
2023/01/07 03:40:29;;;;;;;27.05;18.15;;;10.80;99.90;;;;;;5004460;28;20504;-66
2023/01/07 03:42:55;;;;;;;25.70;18.13;;;10.80;99.90;;;;;;5013148;28;20038;-66
2023/01/07 03:45:23;;;;;;;34.75;19.15;;;10.80;99.90;;;;;;5011896;28;20515;-66
2023/01/07 03:47:51;;;;;;;27.75;18.73;;;10.90;99.90;;;;;;5009189;28;20045;-66
2023/01/07 03:50:17;;;;;;;29.88;18.10;;;10.80;99.90;;;;;;5012779;28;20046;-67
2023/01/07 03:52:43;;;;;;;29.30;17.75;;;10.90;99.90;;;;;;5013104;28;20101;-66
2023/01/07 03:55:10;;;;;;;22.65;14.70;;;10.90;99.90;;;;;;5001630;28;20041;-67
2023/01/07 03:57:36;;;;;;;24.77;14.18;;;10.90;99.90;;;;;;5013123;28;20037;-67
2023/01/07 04:00:05;;;;;;;24.42;14.80;;;10.80;99.90;;;;;;5013859;28;20037;-67
2023/01/07 04:02:30;;;;;;;23.60;14.93;;;10.90;99.90;;;;;;4994143;28;20046;-67
2023/01/07 04:04:56;;;;;;;24.52;13.93;;;10.90;99.90;;;;;;4992757;28;20489;-66
2023/01/07 04:07:22;;;;;;;26.77;15.48;;;10.80;99.90;;;;;;5003064;28;20096;-67
2023/01/07 04:09:49;;;;;;;22.90;14.00;;;10.90;99.90;;;;;;4994070;28;20050;-67
2023/01/07 04:12:15;;;;;;;23.13;15.10;;;10.80;99.90;;;;;;4986930;28;20054;-67
2023/01/07 04:14:40;;;;;;;19.92;13.90;;;10.80;99.90;;;;;;5009906;28;20061;-66
2023/01/07 04:17:06;;;;;;;24.73;14.23;;;10.80;99.90;;;;;;5013616;28;20038;-66
2023/01/07 04:19:32;;;;;;;22.13;14.82;;;10.90;99.90;;;;;;5006986;28;20030;-66
2023/01/07 04:21:57;;;;;;;19.30;12.63;;;10.80;99.90;;;;;;5009413;28;20405;-67
2023/01/07 04:24:23;;;;;;;21.27;13.07;;;10.80;99.90;;;;;;5005707;28;20125;-66
2023/01/07 04:26:49;;;;;;;19.67;13.35;;;10.80;99.90;;;;;;5013135;28;20037;-67
2023/01/07 04:29:14;;;;;;;20.33;13.07;;;10.80;99.90;;;;;;5000923;28;20042;-67
2023/01/07 04:31:40;;;;;;;19.13;13.48;;;10.80;99.90;;;;;;5012361;28;20045;-67
2023/01/07 04:34:05;;;;;;;20.90;13.07;;;10.80;99.90;;;;;;5012794;28;20045;-66
2023/01/07 04:36:31;;;;;;;17.88;11.63;;;10.80;99.90;;;;;;5006813;28;20121;-67
2023/01/07 04:38:57;;;;;;;18.10;12.23;;;10.70;99.90;;;;;;5009062;28;20033;-67
2023/01/07 04:41:22;;;;;;;17.38;11.63;;;10.70;99.90;;;;;;5004631;28;20042;-67
2023/01/07 04:43:48;;;;;;;19.30;12.00;;;10.60;99.90;;;;;;4978089;28;20038;-65
2023/01/07 04:46:14;;;;;;;23.95;12.30;;;10.60;99.90;;;;;;4996175;28;20432;-66
2023/01/07 04:48:39;;;;;;;18.20;11.88;;;10.70;99.90;;;;;;5011405;28;20045;-66
2023/01/07 04:51:05;;;;;;;18.85;11.45;;;10.70;99.90;;;;;;5012549;28;20136;-67
2023/01/07 04:53:30;;;;;;;17.55;11.52;;;10.70;99.90;;;;;;5012647;28;20038;-67
2023/01/07 04:55:56;;;;;;;20.33;13.35;;;10.70;99.90;;;;;;5001937;28;20043;-66
2023/01/07 04:58:22;;;;;;;17.65;12.52;;;10.70;99.90;;;;;;4990370;28;20030;-67
2023/01/07 05:00:48;;;;;;;15.82;11.18;;;10.70;99.90;;;;;;5009339;28;22529;-66
2023/01/07 05:03:14;;;;;;;19.27;12.40;;;10.70;99.90;;;;;;5007177;28;20077;-66
2023/01/07 05:05:39;;;;;;;16.75;10.88;;;10.70;99.90;;;;;;5012318;28;20044;-67
2023/01/07 05:08:05;;;;;;;17.42;12.00;;;10.60;99.90;;;;;;5012810;28;20041;-67
2023/01/07 05:10:31;;;;;;;18.60;12.07;;;10.60;99.90;;;;;;5004588;28;20035;-66
2023/01/07 05:12:57;;;;;;;18.13;10.88;;;10.60;99.90;;;;;;5006284;28;20100;-67
2023/01/07 05:15:23;;;;;;;17.42;11.00;;;10.50;99.90;;;;;;5004327;28;20400;-67
2023/01/07 05:17:48;;;;;;;17.20;10.77;;;10.50;99.90;;;;;;5007029;28;20444;-66
2023/01/07 05:20:14;;;;;;;16.50;10.23;;;10.50;99.90;;;;;;5002342;28;20038;-66
2023/01/07 05:22:39;;;;;;;19.88;10.55;;;10.50;99.90;;;;;;5011951;28;20389;-67
2023/01/07 05:25:06;;;;;;;18.45;10.82;;;10.50;99.90;;;;;;5012762;28;20065;-66
2023/01/07 05:27:31;;;;;;;18.23;11.05;;;10.50;99.90;;;;;;4989449;28;20042;-66
2023/01/07 05:29:57;;;;;;;15.90;10.30;;;10.60;99.90;;;;;;4995959;28;20092;-67
2023/01/07 05:32:22;;;;;;;18.13;10.38;;;10.60;99.90;;;;;;5011809;28;20416;-66
2023/01/07 05:34:48;;;;;;;17.85;9.63;;;10.60;99.90;;;;;;4985307;28;20109;-67
2023/01/07 05:37:13;;;;;;;15.55;10.02;;;10.60;99.90;;;;;;5010323;28;20072;-67
2023/01/07 05:39:39;;;;;;;16.88;10.65;;;10.70;99.90;;;;;;5011652;28;20480;-66
2023/01/07 05:42:05;;;;;;;14.38;10.23;;;10.60;99.90;;;;;;5011347;28;20046;-66
2023/01/07 05:44:30;;;;;;;15.25;10.10;;;10.60;99.90;;;;;;5004361;28;20120;-67
2023/01/07 05:46:56;;;;;;;18.35;10.30;;;10.60;99.90;;;;;;4996109;28;20069;-67
2023/01/07 05:49:22;;;;;;;16.63;10.00;;;10.60;99.90;;;;;;5011430;28;20518;-66
2023/01/07 05:51:47;;;;;;;13.50;9.30;;;10.50;99.90;;;;;;4999159;28;20031;-66
2023/01/07 05:54:13;;;;;;;15.68;9.35;;;10.60;99.90;;;;;;5007239;28;20038;-66
2023/01/07 05:56:38;;;;;;;15.07;9.85;;;10.50;99.90;;;;;;5007933;28;20029;-66
2023/01/07 05:59:05;;;;;;;16.83;10.35;;;10.50;99.90;;;;;;5008661;28;20176;-66
2023/01/07 06:01:31;;;;;;;15.10;9.73;;;10.50;99.90;;;;;;4979149;28;20478;-67
2023/01/07 06:03:57;;;;;;;16.30;9.60;;;10.50;99.90;;;;;;4991906;28;20042;-66
2023/01/07 06:06:22;;;;;;;14.18;9.65;;;10.50;99.90;;;;;;4998705;28;20049;-67
2023/01/07 06:08:48;;;;;;;14.10;8.85;;;10.40;99.90;;;;;;4995087;28;20037;-67
2023/01/07 06:11:13;;;;;;;14.45;9.82;;;10.40;99.90;;;;;;4996672;28;20381;-67
2023/01/07 06:13:39;;;;;;;15.02;8.70;;;10.40;99.90;;;;;;4997778;28;20125;-66
2023/01/07 06:16:07;;;;;;;15.63;8.93;;;10.40;99.90;;;;;;4999512;28;20088;-66
2023/01/07 06:18:33;;;;;;;16.30;9.40;;;10.50;99.90;;;;;;4994623;28;20037;-66
2023/01/07 06:20:59;;;;;;;16.23;8.73;;;10.40;99.90;;;;;;5000795;28;20072;-67
2023/01/07 06:23:24;;;;;;;13.82;9.77;;;10.50;99.90;;;;;;5002729;28;20070;-67
2023/01/07 06:25:50;;;;;;;14.73;9.32;;;10.50;99.90;;;;;;4997053;28;20034;-66
2023/01/07 06:28:16;;;;;;;13.65;9.13;;;10.50;99.90;;;;;;4999858;28;20053;-67
2023/01/07 06:30:45;;;;;;;13.90;9.38;;;10.50;99.90;;;;;;5004490;28;20543;-66
2023/01/07 06:33:11;;;;;;;12.07;7.60;;;10.50;99.90;;;;;;4996572;28;20208;-66
2023/01/07 06:35:36;;;;;;;12.45;8.90;;;10.50;99.90;;;;;;4994020;28;20128;-66
2023/01/07 06:38:02;;;;;;;15.88;8.88;;;10.50;99.90;;;;;;4988582;28;20086;-66
2023/01/07 06:40:27;;;;;;;13.30;8.65;;;10.60;99.90;;;;;;4991278;28;20037;-66
2023/01/07 06:42:53;;;;;;;14.68;8.52;;;10.60;99.90;;;;;;4988646;28;20516;-66
2023/01/07 06:45:19;;;;;;;12.70;7.15;;;10.60;99.90;;;;;;5002870;28;20045;-66
2023/01/07 06:47:47;;;;;;;11.80;8.27;;;10.60;99.90;;;;;;4998191;28;20057;-67
2023/01/07 06:50:13;;;;;;;14.65;8.35;;;10.50;99.90;;;;;;4994442;28;20046;-66
2023/01/07 06:52:38;;;;;;;13.25;8.32;;;10.60;99.90;;;;;;4993620;28;20041;-66
2023/01/07 06:55:04;;;;;;;10.95;7.88;;;10.50;99.90;;;;;;4995921;28;20546;-66
2023/01/07 06:57:30;;;;;;;10.90;8.05;;;10.50;99.90;;;;;;4996383;28;20034;-66
2023/01/07 06:59:56;;;;;;;12.40;8.07;;;10.50;99.90;;;;;;4996696;28;20041;-67
2023/01/07 07:02:25;;;;;;;10.15;7.72;;;10.50;99.90;;;;;;4993226;28;20042;-66
2023/01/07 07:04:51;;;;;;;11.40;7.45;;;10.50;99.90;;;;;;4996477;28;20049;-66
2023/01/07 07:07:17;;;;;;;11.40;7.63;;;10.50;99.90;;;;;;4991469;28;20049;-66
2023/01/07 07:09:44;;;;;;;12.93;7.55;;;10.50;99.90;;;;;;4997055;28;20489;-66
2023/01/07 07:12:10;;;;;;;13.52;8.32;;;10.50;99.90;;;;;;4991570;28;20077;-66
2023/01/07 07:14:35;;;;;;;10.73;7.50;;;10.40;99.90;;;;;;4991904;28;20076;-66
2023/01/07 07:17:01;;;;;;;11.23;7.78;;;10.40;99.90;;;;;;4999797;28;20037;-67
2023/01/07 07:19:27;;;;;;;13.20;7.50;;;10.30;99.90;;;;;;4994716;28;20042;-67
2023/01/07 07:21:52;;;;;;;13.13;7.60;;;10.30;99.90;;;;;;5002143;28;20048;-66
2023/01/07 07:24:18;;;;;;;12.95;7.50;;;10.20;99.90;;;;;;4993751;28;20046;-66
2023/01/07 07:26:44;;;;;;;10.77;7.18;;;10.10;99.90;;;;;;5001500;28;20042;-66
2023/01/07 07:29:09;;;;;;;11.82;7.20;;;10.10;99.90;;;;;;4994703;28;20048;-66
2023/01/07 07:31:35;;;;;;;12.30;7.20;;;10.10;99.90;;;;;;4997136;28;20047;-66
2023/01/07 07:34:01;;;;;;;12.75;7.70;;;10.10;99.90;;;;;;4999911;28;20030;-66
2023/01/07 07:36:27;;;;;;;10.23;7.50;;;10.10;99.90;;;;;;4984323;28;20037;-66
2023/01/07 07:38:52;;;;;;;10.25;7.38;;;10.10;99.90;;;;;;4998668;28;20038;-66
2023/01/07 07:41:18;;;;;;;12.73;8.02;;;10.10;99.90;;;;;;4992361;28;20409;-66
2023/01/07 07:43:44;;;;;;;13.93;7.38;;;10.00;99.90;;;;;;5005722;28;20256;-66
2023/01/07 07:46:09;;;;;;;12.15;7.57;;;9.90;99.90;;;;;;5002352;28;20089;-66
2023/01/07 07:48:35;;;;;;;10.93;7.25;;;9.90;99.90;;;;;;4992296;28;20500;-67
2023/01/07 07:51:01;;;;;;;11.23;7.40;;;9.80;99.90;;;;;;4997347;28;20045;-66
2023/01/07 07:53:26;;;;;;;12.05;7.85;;;9.80;99.90;;;;;;4994777;28;20026;-66
2023/01/07 07:55:52;;;;;;;11.32;7.68;;;9.70;99.90;;;;;;5000388;28;20656;-67
2023/01/07 07:58:18;;;;;;;11.63;7.85;;;9.80;99.90;;;;;;5010116;28;20137;-67
2023/01/07 08:00:44;;;;;;;10.70;7.90;;;9.80;99.90;;;;;;5010444;28;20546;-67
2023/01/07 08:03:10;;;;;;;12.77;7.53;;;9.80;99.90;;;;;;5002720;28;20401;-67
2023/01/07 08:05:40;;;;;;;17.00;7.95;;;9.80;99.90;;;;;;5000450;28;20531;-67
2023/01/07 08:08:08;;;;;;;13.45;7.60;;;9.80;99.90;;;;;;5006998;28;20056;-67
2023/01/07 08:10:34;;;;;;;11.52;7.43;;;9.70;99.90;;;;;;5002969;28;20034;-67
2023/01/07 08:12:59;;;;;;;10.82;7.18;;;9.70;99.90;;;;;;4990259;28;20047;-67
2023/01/07 08:15:25;;;;;;;11.20;7.03;;;9.60;99.90;;;;;;4997578;28;20037;-67
2023/01/07 08:17:59;;;;;;;11.18;7.55;;;9.60;99.90;;;;;;5008050;28;20099;-67
2023/01/07 08:20:25;;;;;;;10.73;7.10;;;9.60;99.90;;;;;;4982810;28;20045;-67
2023/01/07 08:22:50;;;;;;;13.38;7.35;;;9.60;99.90;;;;;;4990983;28;20042;-67
2023/01/07 08:25:17;;;;;;;10.07;6.72;;;9.60;99.90;;;;;;4995450;28;20034;-67
2023/01/07 08:27:42;;;;;;;13.60;8.05;;;9.60;99.90;;;;;;4996194;28;20046;-66
2023/01/07 08:30:09;;;;;;;13.15;7.25;;;9.60;99.90;;;;;;4993784;28;20045;-66
2023/01/07 08:32:35;;;;;;;9.30;6.40;;;9.60;99.90;;;;;;5002093;28;20033;-67
2023/01/07 08:35:02;;;;;;;11.52;6.70;;;9.60;99.90;;;;;;4987913;28;20030;-67
2023/01/07 08:37:30;;;;;;;10.40;6.90;;;9.60;99.90;;;;;;4998742;28;20627;-66
2023/01/07 08:39:56;;;;;;;10.23;6.50;;;9.70;99.90;;;;;;4994743;28;20076;-67
2023/01/07 08:42:22;;;;;;;9.82;6.63;;;9.70;99.90;;;;;;4996306;28;20125;-66
2023/01/07 08:44:47;;;;;;;10.82;6.90;;;9.70;99.90;;;;;;4995604;28;20624;-66
2023/01/07 08:47:13;;;;;;;10.90;6.80;;;9.80;99.90;;;;;;5003735;28;20077;-66
2023/01/07 08:49:39;;;;;;;11.90;6.68;;;9.90;99.90;;;;;;4990324;28;20488;-66
2023/01/07 08:52:04;;;;;;;9.75;6.55;;;10.00;99.90;;;;;;5002692;28;20041;-66
2023/01/07 08:54:30;;;;;;;8.00;6.13;;;10.00;99.90;;;;;;4998998;28;20037;-67
2023/01/07 08:56:55;;;;;;;9.88;6.57;;;10.10;99.90;;;;;;4997276;28;20606;-66
2023/01/07 08:59:21;;;;;;;9.57;5.90;;;10.10;99.90;;;;;;4994762;28;20026;-66
2023/01/07 09:01:47;;;;;;;9.38;5.97;;;10.20;99.90;;;;;;4990444;28;20050;-67
2023/01/07 09:04:12;;;;;;;9.52;5.47;;;10.30;99.90;;;;;;4976095;28;20046;-67
2023/01/07 09:06:38;;;;;;;10.38;5.70;;;10.30;99.90;;;;;;5008232;28;20061;-66
2023/01/07 09:09:03;;;;;;;11.00;5.20;;;10.20;99.90;;;;;;5009912;28;20052;-66
2023/01/07 09:11:29;;;;;;;7.40;4.88;;;10.20;99.90;;;;;;4994165;28;20444;-66
2023/01/07 09:13:55;;;;;;;7.95;5.40;;;10.20;99.90;;;;;;5004666;28;20065;-66
2023/01/07 09:16:20;;;;;;;8.75;5.05;;;10.20;99.90;;;;;;4998117;28;20031;-66
2023/01/07 09:18:46;;;;;;;8.10;5.63;;;10.20;99.90;;;;;;4982625;28;20034;-66
2023/01/07 09:21:12;;;;;;;7.28;5.20;;;10.20;99.90;;;;;;5000584;28;20049;-66
2023/01/07 09:23:37;;;;;;;9.45;5.07;;;10.30;99.90;;;;;;5005281;28;20477;-66
2023/01/07 09:26:03;;;;;;;8.75;5.30;;;10.30;99.90;;;;;;5010561;28;20049;-66
2023/01/07 09:28:28;;;;;;;7.07;5.00;;;10.30;99.90;;;;;;5000378;28;20458;-66
2023/01/07 09:30:54;;;;;;;9.65;4.88;;;10.40;99.90;;;;;;5005194;28;20045;-66
2023/01/07 09:33:20;;;;;;;10.00;4.60;;;10.50;99.90;;;;;;5002479;28;20038;-66
2023/01/07 09:35:45;;;;;;;8.30;5.05;;;10.50;99.90;;;;;;4994232;28;20633;-66
2023/01/07 09:38:11;;;;;;;6.57;4.18;;;10.70;99.90;;;;;;4990612;28;20040;-66
2023/01/07 09:40:39;;;;;;;5.95;4.45;;;10.60;99.90;;;;;;4991882;28;20424;-66
2023/01/07 09:43:19;;;;;;;5.90;4.22;;;10.70;99.90;;;;;;4994303;28;20034;-66
2023/01/07 09:45:51;;;;;;;8.63;4.43;;;10.80;99.90;;;;;;4990847;28;20034;-66
2023/01/07 09:48:34;;;;;;;8.20;4.10;;;10.80;99.90;;;;;;5002773;28;20536;-66
2023/01/07 09:51:05;;;;;;;7.45;4.15;;;10.80;99.90;;;;;;5009155;28;20045;-66
2023/01/07 09:53:45;;;;;;;6.40;4.22;;;10.80;99.90;;;;;;5006254;28;20041;-66
2023/01/07 09:56:26;;;;;;;5.45;4.03;;;10.90;99.90;;;;;;5002228;28;20039;-66
2023/01/07 09:58:52;;;;;;;9.70;4.55;;;10.90;99.90;;;;;;5000278;28;20127;-66
2023/01/07 10:01:46;;;;;;;6.13;4.10;;;11.00;99.90;;;;;;5002153;28;20570;-66
2023/01/07 10:04:36;;;;;;;5.75;3.55;;;11.00;99.90;;;;;;4965711;28;1049389;-66
2023/01/07 10:07:07;;;;;;;6.63;3.85;;;11.10;99.90;;;;;;5010406;28;20053;-66
2023/01/07 10:09:33;;;;;;;6.78;3.72;;;11.10;99.90;;;;;;5004915;28;20382;-66
2023/01/07 10:12:39;;;;;;;5.97;3.90;;;11.10;99.90;;;;;;5002067;28;20041;-66
2023/01/07 10:15:23;;;;;;;5.45;3.50;;;11.20;99.90;;;;;;5010265;28;20116;-66
2023/01/07 10:18:19;;;;;;;5.25;3.22;;;11.20;99.90;;;;;;4999706;28;20038;-66
2023/01/07 10:20:45;;;;;;;4.35;3.45;;;11.20;99.90;;;;;;4987711;28;20507;-66
2023/01/07 10:23:32;;;;;;;5.63;3.85;;;11.30;99.90;;;;;;4999159;28;20130;-66
2023/01/07 10:26:00;;;;;;;5.18;3.22;;;11.30;99.90;;;;;;4974010;28;20088;-66
2023/01/07 10:28:33;;;;;;;6.40;3.50;;;11.20;99.90;;;;;;4999257;28;20046;-66
2023/01/07 10:31:00;;;;;;;5.43;3.28;;;11.30;99.90;;;;;;4989774;28;20074;-66
2023/01/07 10:33:31;;;;;;;7.45;3.80;;;11.20;99.90;;;;;;4992100;28;20034;-66
2023/01/07 10:36:22;;;;;;;4.00;2.97;;;11.30;99.90;;;;;;4990340;28;20054;-66
2023/01/07 10:39:01;;;;;;;6.22;3.45;;;11.30;99.90;;;;;;4992550;28;20049;-66
2023/01/07 10:41:51;;;;;;;4.32;3.22;;;11.30;99.90;;;;;;4999227;28;20046;-66
2023/01/07 10:44:37;;;;;;;5.57;3.42;;;11.30;99.90;;;;;;4998259;28;20050;-66
2023/01/07 10:47:24;;;;;;;6.00;3.30;;;11.30;99.90;;;;;;4995188;28;20049;-66
2023/01/07 10:49:56;;;;;;;4.93;3.20;;;11.40;99.90;;;;;;4999797;28;20550;-66
2023/01/07 10:52:25;;;;;;;6.97;3.72;;;11.50;99.90;;;;;;4992334;28;20092;-66
2023/01/07 10:54:51;;;;;;;5.68;3.55;;;11.50;99.90;;;;;;5005292;28;20104;-67
2023/01/07 10:57:19;;;;;;;4.25;3.45;;;11.50;99.90;;;;;;5015304;28;20041;-67
2023/01/07 10:59:52;;;;;;;6.05;3.42;;;11.50;99.90;;;;;;5010987;28;20097;-67
2023/01/07 11:02:20;;;;;;;7.28;3.58;;;11.50;99.90;;;;;;4986328;28;20042;-66
2023/01/07 11:04:46;;;;;;;8.07;3.55;;;11.50;99.90;;;;;;5000687;28;20504;-66
2023/01/07 11:07:32;;;;;;;5.35;3.60;;;11.50;99.90;;;;;;5004254;28;20061;-65
2023/01/07 11:10:03;;;;;;;6.63;3.58;;;11.50;99.90;;;;;;5006066;28;20046;-66
2023/01/07 11:12:48;;;;;;;5.13;3.40;;;11.50;99.90;;;;;;4999396;28;20053;-66
2023/01/07 11:15:30;;;;;;;5.25;3.58;;;11.50;99.90;;;;;;5005417;28;20088;-66
2023/01/07 11:17:59;;;;;;;5.28;3.10;;;11.40;99.90;;;;;;5001581;28;20046;-66
2023/01/07 11:20:51;;;;;;;4.20;2.95;;;11.50;99.90;;;;;;5002019;28;20061;-66
2023/01/07 11:23:21;;;;;;;10.52;3.30;;;11.50;99.90;;;;;;4991110;28;20034;-66
2023/01/07 11:25:47;;;;;;;6.15;3.03;;;11.50;99.90;;;;;;5003539;28;20477;-66
2023/01/07 11:28:19;;;;;;;8.43;3.25;;;11.50;99.90;;;;;;5001399;28;20069;-66
2023/01/07 11:30:54;;;;;;;6.70;3.40;;;11.50;99.90;;;;;;4999055;28;20058;-66
2023/01/07 11:33:25;;;;;;;5.63;3.10;;;11.50;99.90;;;;;;5008613;28;20428;-65
2023/01/07 11:35:55;;;;;;;5.10;2.92;;;11.50;99.90;;;;;;4991156;28;20108;-66
2023/01/07 11:38:29;;;;;;;5.80;2.85;;;11.60;99.90;;;;;;4996687;28;20156;-66
2023/01/07 11:40:57;;;;;;;6.68;2.97;;;11.60;99.90;;;;;;4998802;28;20073;-65
2023/01/07 11:43:24;;;;;;;5.90;3.00;;;11.60;99.90;;;;;;4979597;28;20104;-65
2023/01/07 11:45:53;;;;;;;5.18;2.60;;;11.70;99.90;;;;;;5002304;28;20030;-66
2023/01/07 11:48:27;;;;;;;4.47;2.75;;;11.70;99.90;;;;;;5006356;28;20099;-65
2023/01/07 11:50:52;;;;;;;4.28;2.90;;;11.80;99.90;;;;;;5005739;28;20046;-65
2023/01/07 11:53:18;;;;;;;5.95;3.00;;;11.70;99.90;;;;;;4983550;28;20069;-65
2023/01/07 11:55:56;;;;;;;3.58;2.50;;;11.70;99.90;;;;;;4992505;28;20536;-65
2023/01/07 11:58:22;;;;;;;4.75;2.75;;;11.80;99.90;;;;;;5000839;28;20034;-65
2023/01/07 12:01:01;;;;;;;3.28;2.45;;;11.80;99.90;;;;;;5005522;28;20026;-65
2023/01/07 12:03:27;;;;;;;3.70;2.58;;;11.80;99.90;;;;;;5003985;28;20038;-66
2023/01/07 12:05:57;;;;;;;4.22;2.80;;;11.80;99.90;;;;;;4994378;28;20112;-65
2023/01/07 12:08:26;;;;;;;5.72;2.70;;;11.80;99.90;;;;;;4998169;28;20038;-66
2023/01/07 12:10:56;;;;;;;5.40;2.90;;;11.80;99.90;;;;;;4985785;28;20068;-65
2023/01/07 12:13:26;;;;;;;4.55;2.80;;;11.80;99.90;;;;;;5002460;28;20034;-65
2023/01/07 12:15:58;;;;;;;4.53;2.80;;;11.90;99.90;;;;;;5001934;28;20046;-65
2023/01/07 12:18:33;;;;;;;9.93;2.83;;;12.00;99.90;;;;;;5001518;28;20070;-65
2023/01/07 12:21:16;;;;;;;3.90;2.67;;;12.00;99.90;;;;;;5000961;28;20408;-65
2023/01/07 12:24:12;;;;;;;9.43;2.90;;;11.90;99.90;;;;;;5001020;28;20045;-65
2023/01/07 12:27:16;;;;;;;3.95;2.70;;;11.80;99.90;;;;;;5010813;28;20042;-66
2023/01/07 12:30:33;;;;;;;4.95;2.50;;;11.80;99.90;;;;;;4950372;28;20077;-66
2023/01/07 12:33:17;;;;;;;4.15;2.50;;;11.80;99.90;;;;;;4961082;28;20060;-66
2023/01/07 12:35:46;;;;;;;4.53;2.55;;;11.80;99.90;;;;;;5007650;28;20042;-66
2023/01/07 12:38:18;;;;;;;5.72;2.75;;;11.80;99.90;;;;;;5013256;28;20143;-66
2023/01/07 12:40:56;;;;;;;4.70;2.45;;;11.80;99.90;;;;;;5014176;28;20045;-66
2023/01/07 12:43:33;;;;;;;4.25;2.33;;;11.80;99.90;;;;;;5005169;28;20034;-66
2023/01/07 12:46:02;;;;;;;4.88;2.50;;;11.80;99.90;;;;;;5011778;28;20077;-67
2023/01/07 12:48:35;;;;;;;3.75;2.33;;;11.80;99.90;;;;;;4997788;28;20046;-67
2023/01/07 12:51:09;;;;;;;4.00;2.28;;;11.90;99.90;;;;;;4998811;28;20255;-66